Time;durP1;ratioP1;P1;durP2;ratioP2;P2;SDS_P1;SDS_P2;PMS_P1;PMS_P2;Temp;Humidity;BMP_temperature;BMP_pressure;BME280_temperature;BME280_humidity;BME280_pressure;Samples;Min_cycle;Max_cycle;Signal;HPM_P1;HPM_P2
2023/03/31 00:02:21;;;;;;;34.90;6.13;;;19.10;59.40;;;;;;5017544;28;20293;-93
2023/03/31 00:04:52;;;;;;;30.00;5.60;;;19.20;59.50;;;;;;5007932;28;20209;-93
2023/03/31 00:07:20;;;;;;;33.73;6.20;;;19.20;59.50;;;;;;5009270;28;20212;-93
2023/03/31 00:09:53;;;;;;;28.70;5.27;;;19.20;59.50;;;;;;5008764;28;20228;-93
2023/03/31 00:12:21;;;;;;;29.27;5.37;;;19.10;59.40;;;;;;4992063;28;20201;-94
2023/03/31 00:14:48;;;;;;;30.90;5.73;;;19.10;59.40;;;;;;4999432;28;20209;-93
2023/03/31 00:17:15;;;;;;;29.40;5.37;;;19.10;59.40;;;;;;5010842;28;20215;-93
2023/03/31 00:19:42;;;;;;;33.73;5.97;;;19.10;59.40;;;;;;5009854;28;20236;-91
2023/03/31 00:22:10;;;;;;;27.33;5.37;;;19.10;59.50;;;;;;5010520;28;20216;-93
2023/03/31 00:24:37;;;;;;;28.47;5.43;;;19.10;60.10;;;;;;5009913;28;20256;-93
2023/03/31 00:27:05;;;;;;;32.07;5.63;;;19.00;59.40;;;;;;5009224;28;20556;-93
2023/03/31 00:29:34;;;;;;;27.17;5.73;;;19.10;59.40;;;;;;5010408;28;20286;-92
2023/03/31 00:32:01;;;;;;;32.67;5.50;;;19.10;59.50;;;;;;5010820;28;20200;-93
2023/03/31 00:34:28;;;;;;;51.10;7.50;;;19.00;59.40;;;;;;5009164;28;20302;-92
2023/03/31 00:37:01;;;;;;;29.17;5.87;;;19.10;59.40;;;;;;5009930;28;20252;-92
2023/03/31 00:39:32;;;;;;;23.43;5.10;;;19.00;59.40;;;;;;5010541;28;20209;-93
2023/03/31 00:42:02;;;;;;;32.27;5.60;;;19.10;59.50;;;;;;5010374;28;20295;-92
2023/03/31 00:44:33;;;;;;;32.57;5.57;;;19.00;59.40;;;;;;5009260;28;20215;-93
2023/03/31 00:47:03;;;;;;;30.00;5.33;;;19.00;59.40;;;;;;5009061;28;20219;-93
2023/03/31 00:49:33;;;;;;;39.83;6.23;;;19.10;59.50;;;;;;5008843;28;20208;-92
2023/03/31 00:52:05;;;;;;;30.80;5.60;;;19.00;59.40;;;;;;5008182;28;20223;-92
2023/03/31 00:54:36;;;;;;;25.03;5.20;;;19.00;59.40;;;;;;5010473;28;20260;-93
2023/03/31 00:57:06;;;;;;;30.93;5.77;;;18.90;59.30;;;;;;5010099;28;20331;-92
2023/03/31 00:59:37;;;;;;;28.23;5.60;;;19.00;59.40;;;;;;5008096;28;20217;-93
2023/03/31 01:02:05;;;;;;;33.70;5.63;;;19.00;59.40;;;;;;5009741;28;20683;-92
2023/03/31 01:04:35;;;;;;;29.33;5.70;;;19.00;59.40;;;;;;5010476;28;20232;-94
2023/03/31 01:07:11;;;;;;;35.17;6.00;;;19.00;59.40;;;;;;5009478;28;20224;-92
2023/03/31 01:09:40;;;;;;;29.20;5.13;;;19.00;59.50;;;;;;5005787;28;20212;-93
2023/03/31 01:12:10;;;;;;;28.83;5.40;;;19.00;59.50;;;;;;5007319;28;20202;-93
2023/03/31 01:14:39;;;;;;;25.37;5.30;;;18.90;59.40;;;;;;5010206;28;20270;-92
2023/03/31 01:17:08;;;;;;;20.90;4.70;;;18.90;59.40;;;;;;5007609;28;20282;-92
2023/03/31 01:19:50;;;;;;;35.00;5.87;;;18.90;59.40;;;;;;5007817;28;20271;-93
2023/03/31 01:22:44;;;;;;;42.17;6.80;;;18.90;59.40;;;;;;5009626;28;20209;-93
2023/03/31 01:25:56;;;;;;;37.97;6.03;;;18.90;59.40;;;;;;5008352;28;20552;-93
2023/03/31 01:28:33;;;;;;;42.17;6.93;;;18.90;59.40;;;;;;4999663;28;20244;-93
2023/03/31 01:31:38;;;;;;;24.60;5.47;;;18.90;59.40;;;;;;5008955;28;20214;-93
2023/03/31 01:34:28;;;;;;;35.63;6.10;;;18.90;59.40;;;;;;5008074;28;20921;-92
2023/03/31 01:37:28;;;;;;;40.60;6.73;;;18.90;59.40;;;;;;5007242;28;20346;-92
2023/03/31 01:40:25;;;;;;;26.70;5.30;;;18.90;59.40;;;;;;4991170;28;20204;-93
2023/03/31 01:42:57;;;;;;;29.73;5.43;;;18.80;59.40;;;;;;5009288;28;20629;-92
2023/03/31 01:45:36;;;;;;;25.87;5.27;;;18.80;59.40;;;;;;5008655;28;20209;-93
2023/03/31 01:48:13;;;;;;;32.03;5.60;;;18.80;59.40;;;;;;5008892;28;20295;-92
2023/03/31 01:50:46;;;;;;;44.60;6.63;;;18.80;59.40;;;;;;5006842;28;20866;-92
2023/03/31 01:53:18;;;;;;;27.27;5.47;;;18.80;59.40;;;;;;5012442;28;20204;-92
2023/03/31 01:55:52;;;;;;;34.73;5.93;;;18.80;60.00;;;;;;5029025;28;20241;-92
2023/03/31 01:58:22;;;;;;;30.90;5.67;;;18.80;59.40;;;;;;5014609;28;20218;-93
2023/03/31 02:00:55;;;;;;;24.00;4.77;;;18.80;59.40;;;;;;5009147;28;20302;-92
2023/03/31 02:03:28;;;;;;;45.33;6.40;;;18.80;59.40;;;;;;5007680;28;20216;-92
2023/03/31 02:06:01;;;;;;;26.00;5.10;;;18.80;59.40;;;;;;5009614;28;20214;-92
2023/03/31 02:08:32;;;;;;;39.67;5.97;;;18.80;59.40;;;;;;5008182;28;20228;-94
2023/03/31 02:11:01;;;;;;;30.53;5.57;;;18.70;59.40;;;;;;5009895;28;20602;-93
2023/03/31 02:13:30;;;;;;;48.33;7.10;;;18.70;59.40;;;;;;5007153;28;20208;-93
2023/03/31 02:16:01;;;;;;;30.70;5.80;;;18.70;59.40;;;;;;5008949;28;20243;-93
2023/03/31 02:18:37;;;;;;;39.70;6.13;;;18.70;59.40;;;;;;5008198;28;20202;-93
2023/03/31 02:21:06;;;;;;;24.77;5.20;;;18.70;59.40;;;;;;5009167;28;20722;-93
2023/03/31 02:23:34;;;;;;;25.03;4.93;;;18.70;59.40;;;;;;5019508;28;20289;-93
2023/03/31 02:26:07;;;;;;;34.30;6.47;;;18.70;59.40;;;;;;5015101;28;20236;-93
2023/03/31 02:28:34;;;;;;;27.17;5.40;;;18.70;59.40;;;;;;5008576;28;20560;-93
2023/03/31 02:31:10;;;;;;;27.00;4.90;;;18.70;59.40;;;;;;5009163;28;20725;-95
2023/03/31 02:33:37;;;;;;;23.57;4.90;;;18.70;59.40;;;;;;5007740;28;20203;-93
2023/03/31 02:36:06;;;;;;;26.53;5.63;;;18.70;59.40;;;;;;5009090;28;20237;-92
2023/03/31 02:38:35;;;;;;;37.50;6.33;;;18.70;59.50;;;;;;5007823;28;20232;-94
2023/03/31 02:41:04;;;;;;;19.23;4.60;;;18.70;59.50;;;;;;5009152;28;20211;-92
2023/03/31 02:43:31;;;;;;;43.00;6.80;;;18.70;59.40;;;;;;5006756;28;20291;-94
2023/03/31 02:45:58;;;;;;;24.60;5.47;;;18.60;59.30;;;;;;4989277;28;20217;-94
2023/03/31 02:48:28;;;;;;;40.63;6.30;;;18.60;59.40;;;;;;5007721;28;20223;-92
2023/03/31 02:51:13;;;;;;;24.00;5.30;;;18.70;59.50;;;;;;4990120;28;20210;-94
2023/03/31 02:53:53;;;;;;;47.37;6.80;;;18.70;59.60;;;;;;4989581;28;20213;-92
2023/03/31 02:56:36;;;;;;;35.60;6.77;;;18.60;59.40;;;;;;5008932;28;20263;-93
2023/03/31 02:59:16;;;;;;;46.57;6.67;;;18.60;59.40;;;;;;5010401;28;20212;-92
2023/03/31 03:02:04;;;;;;;28.27;5.80;;;18.50;59.40;;;;;;5010113;28;20220;-93
2023/03/31 03:04:48;;;;;;;28.10;5.33;;;18.60;59.40;;;;;;5012063;28;20665;-90
2023/03/31 03:07:22;;;;;;;27.30;5.50;;;18.60;59.40;;;;;;5011531;28;20216;-91
2023/03/31 03:09:59;;;;;;;34.87;5.93;;;18.60;59.40;;;;;;4991724;28;20213;-90
2023/03/31 03:12:34;;;;;;;30.23;5.40;;;18.60;59.50;;;;;;5008967;28;20661;-91
2023/03/31 03:15:05;;;;;;;32.77;6.03;;;18.60;59.50;;;;;;5009401;28;20210;-92
2023/03/31 03:17:36;;;;;;;28.03;5.60;;;18.60;59.50;;;;;;5008443;28;20232;-91
2023/03/31 03:20:07;;;;;;;28.47;5.63;;;18.60;59.50;;;;;;5018875;28;20732;-90
2023/03/31 03:22:35;;;;;;;36.53;6.10;;;18.60;59.50;;;;;;5011163;28;20224;-92
2023/03/31 03:25:02;;;;;;;38.67;6.30;;;18.50;59.40;;;;;;5011167;28;20216;-90
2023/03/31 03:27:31;;;;;;;28.03;5.17;;;18.60;59.50;;;;;;5010657;28;20204;-92
2023/03/31 03:29:58;;;;;;;44.77;6.87;;;18.50;59.40;;;;;;5017359;28;20574;-91
2023/03/31 03:32:25;;;;;;;24.37;4.73;;;18.50;59.40;;;;;;5016077;28;20209;-91
2023/03/31 03:34:52;;;;;;;31.37;5.77;;;18.50;59.40;;;;;;5016357;28;20217;-91
2023/03/31 03:37:19;;;;;;;26.90;5.57;;;18.50;59.40;;;;;;5011751;28;20240;-92
2023/03/31 03:39:47;;;;;;;32.47;5.60;;;18.50;59.40;;;;;;5011083;28;20207;-91
2023/03/31 03:42:14;;;;;;;22.37;4.77;;;18.50;59.50;;;;;;5010450;28;20212;-91
2023/03/31 03:44:43;;;;;;;25.87;4.90;;;18.50;59.50;;;;;;5011493;28;20207;-91
2023/03/31 03:47:10;;;;;;;17.07;4.17;;;18.50;59.50;;;;;;5010991;28;20208;-91
2023/03/31 03:49:37;;;;;;;37.13;5.80;;;18.50;59.50;;;;;;5012905;28;20203;-91
2023/03/31 03:52:04;;;;;;;24.90;4.87;;;18.50;59.50;;;;;;5007940;28;20219;-91
2023/03/31 03:54:31;;;;;;;28.63;5.10;;;18.50;59.50;;;;;;5010580;28;20216;-91
2023/03/31 03:56:58;;;;;;;29.53;5.00;;;18.50;59.50;;;;;;5009663;28;20229;-91
2023/03/31 03:59:25;;;;;;;40.00;6.57;;;18.50;59.60;;;;;;5009124;28;20749;-92
2023/03/31 04:01:53;;;;;;;32.30;5.43;;;18.40;60.20;;;;;;5009299;28;20212;-91
2023/03/31 04:04:23;;;;;;;25.87;4.83;;;18.50;59.60;;;;;;5009649;28;20211;-91
2023/03/31 04:06:50;;;;;;;25.37;4.80;;;18.50;59.60;;;;;;5010009;28;20223;-90
2023/03/31 04:09:17;;;;;;;30.00;4.80;;;18.50;59.60;;;;;;5011356;28;20215;-90
2023/03/31 04:11:44;;;;;;;28.07;5.07;;;18.50;59.60;;;;;;5020139;28;20867;-90
2023/03/31 04:14:11;;;;;;;29.23;5.07;;;18.50;59.60;;;;;;5001875;28;20660;-91
2023/03/31 04:16:39;;;;;;;25.47;4.90;;;18.50;59.60;;;;;;5008411;28;20587;-91
2023/03/31 04:19:10;;;;;;;26.53;4.80;;;18.40;59.50;;;;;;5009457;28;20659;-90
2023/03/31 04:21:43;;;;;;;24.67;4.47;;;18.40;59.50;;;;;;4993262;28;20197;-90
2023/03/31 04:24:15;;;;;;;28.97;4.87;;;18.50;59.60;;;;;;5008443;28;20228;-91
2023/03/31 04:26:42;;;;;;;26.93;4.77;;;18.40;59.50;;;;;;5008672;28;20204;-91
2023/03/31 04:29:11;;;;;;;34.17;5.87;;;18.40;59.50;;;;;;5008059;28;20339;-89
2023/03/31 04:31:41;;;;;;;28.27;5.00;;;18.50;59.60;;;;;;5009333;28;20200;-90
2023/03/31 04:34:12;;;;;;;24.23;4.60;;;18.50;59.60;;;;;;5010066;28;20211;-89
2023/03/31 04:36:41;;;;;;;25.20;4.60;;;18.40;59.50;;;;;;5008444;28;20671;-89
2023/03/31 04:39:10;;;;;;;27.87;4.80;;;18.40;59.50;;;;;;5008316;28;20596;-90
2023/03/31 04:41:38;;;;;;;23.33;4.30;;;18.40;59.50;;;;;;5009506;28;20204;-90
2023/03/31 04:44:05;;;;;;;26.30;4.63;;;18.40;59.50;;;;;;5008572;28;20202;-90
2023/03/31 04:46:32;;;;;;;32.07;5.20;;;18.40;59.50;;;;;;5003921;28;20204;-90
2023/03/31 04:49:00;;;;;;;33.53;5.47;;;18.30;59.40;;;;;;5009544;28;20208;-91
2023/03/31 04:51:29;;;;;;;27.60;5.07;;;18.40;59.50;;;;;;5009637;28;20300;-91
2023/03/31 04:53:56;;;;;;;34.97;5.47;;;18.50;59.50;;;;;;5009155;28;20288;-90
2023/03/31 04:56:24;;;;;;;28.50;4.83;;;18.40;59.50;;;;;;5007565;28;20234;-90
2023/03/31 04:58:51;;;;;;;27.13;4.40;;;18.40;59.50;;;;;;5008026;28;20216;-90
2023/03/31 05:01:18;;;;;;;29.10;4.93;;;18.30;59.40;;;;;;5008985;28;20209;-90
2023/03/31 05:03:46;;;;;;;36.73;5.70;;;18.30;59.40;;;;;;5006616;28;20201;-90
2023/03/31 05:06:14;;;;;;;29.07;5.00;;;18.30;59.40;;;;;;5007327;28;20207;-90
2023/03/31 05:08:42;;;;;;;20.27;4.30;;;18.40;59.50;;;;;;5009113;28;20208;-90
2023/03/31 05:11:09;;;;;;;23.60;4.73;;;18.30;59.40;;;;;;5007831;28;20242;-91
2023/03/31 05:13:36;;;;;;;29.07;5.00;;;18.30;59.40;;;;;;5007920;28;20203;-90
2023/03/31 05:16:07;;;;;;;21.57;4.43;;;18.30;59.50;;;;;;5009001;28;20199;-90
2023/03/31 05:18:34;;;;;;;27.93;4.73;;;18.30;59.50;;;;;;5008673;28;20195;-91
2023/03/31 05:21:10;;;;;;;27.27;5.03;;;18.30;59.50;;;;;;5007597;28;20207;-90
2023/03/31 05:23:37;;;;;;;37.03;5.80;;;18.40;59.50;;;;;;4989325;28;20230;-90
2023/03/31 05:26:06;;;;;;;32.77;5.17;;;18.30;59.50;;;;;;5008668;28;20226;-91
2023/03/31 05:28:34;;;;;;;28.87;5.03;;;18.30;59.50;;;;;;5005716;28;20236;-91
2023/03/31 05:31:01;;;;;;;25.87;4.60;;;18.30;59.50;;;;;;5005846;28;20571;-89
2023/03/31 05:33:29;;;;;;;24.93;4.73;;;18.30;59.50;;;;;;5008762;28;20204;-90
2023/03/31 05:35:56;;;;;;;35.33;5.43;;;18.20;59.40;;;;;;5007047;28;20200;-91
2023/03/31 05:38:22;;;;;;;38.17;6.07;;;18.30;59.50;;;;;;5008661;28;20235;-93
2023/03/31 05:40:49;;;;;;;38.37;5.93;;;18.20;60.00;;;;;;5008366;28;20206;-93
2023/03/31 05:43:18;;;;;;;31.77;5.33;;;18.30;59.50;;;;;;5009144;28;20652;-92
2023/03/31 05:45:46;;;;;;;41.57;6.03;;;18.20;59.40;;;;;;5006732;28;20202;-90
2023/03/31 05:48:14;;;;;;;31.57;5.13;;;18.30;59.50;;;;;;5005287;28;20215;-91
2023/03/31 05:50:41;;;;;;;27.07;5.10;;;18.20;59.40;;;;;;5007922;28;20696;-91
2023/03/31 05:53:08;;;;;;;37.53;6.03;;;18.20;59.40;;;;;;5008556;28;20623;-90
2023/03/31 05:55:36;;;;;;;31.10;5.23;;;18.20;59.40;;;;;;5006933;28;20216;-91
2023/03/31 05:58:07;;;;;;;30.30;5.60;;;18.20;59.40;;;;;;5004990;28;20236;-92
2023/03/31 06:00:36;;;;;;;22.17;4.83;;;18.20;59.50;;;;;;5007091;28;20211;-91
2023/03/31 06:03:06;;;;;;;29.97;6.20;;;18.30;59.50;;;;;;5007407;28;20215;-91
2023/03/31 06:05:34;;;;;;;29.30;5.80;;;18.20;59.40;;;;;;5007568;28;20219;-91
2023/03/31 06:08:04;;;;;;;25.77;5.13;;;18.20;59.50;;;;;;5006327;28;20207;-91
2023/03/31 06:10:31;;;;;;;46.97;6.90;;;18.20;59.50;;;;;;5003913;28;20340;-91
2023/03/31 06:12:58;;;;;;;22.30;5.30;;;18.20;59.50;;;;;;5007476;28;20213;-92
2023/03/31 06:15:24;;;;;;;43.27;7.00;;;18.20;59.50;;;;;;5005512;28;20207;-90
2023/03/31 06:17:53;;;;;;;34.73;6.27;;;18.20;59.50;;;;;;5006072;28;20229;-90
2023/03/31 06:20:20;;;;;;;35.43;5.97;;;18.20;59.50;;;;;;5007182;28;20212;-91
2023/03/31 06:22:47;;;;;;;28.83;5.43;;;18.20;59.50;;;;;;5005274;28;20322;-90
2023/03/31 06:25:14;;;;;;;33.67;6.27;;;18.10;59.50;;;;;;5005557;28;20295;-90
2023/03/31 06:27:41;;;;;;;36.53;6.07;;;18.10;59.50;;;;;;5007862;28;20591;-92
2023/03/31 06:30:09;;;;;;;35.83;6.13;;;18.10;60.10;;;;;;5005808;28;20208;-91
2023/03/31 06:32:36;;;;;;;43.43;7.23;;;18.20;59.60;;;;;;5007771;28;20213;-90
2023/03/31 06:35:04;;;;;;;32.23;5.97;;;18.10;59.50;;;;;;5006380;28;20235;-90
2023/03/31 06:37:31;;;;;;;25.07;5.37;;;18.10;59.50;;;;;;5010769;28;20219;-89
2023/03/31 06:39:58;;;;;;;24.93;5.67;;;18.10;59.50;;;;;;5011346;28;20287;-89
2023/03/31 06:42:25;;;;;;;21.60;5.00;;;18.10;59.50;;;;;;5009282;28;20383;-90
2023/03/31 06:44:54;;;;;;;29.33;6.13;;;18.10;59.60;;;;;;5011302;28;20303;-93
2023/03/31 06:47:21;;;;;;;33.10;6.37;;;18.10;59.50;;;;;;5009952;28;20217;-91
2023/03/31 06:49:48;;;;;;;25.93;5.80;;;18.10;59.50;;;;;;5010736;28;20293;-90
2023/03/31 06:52:16;;;;;;;37.50;6.33;;;18.10;59.50;;;;;;5011476;28;20223;-90
2023/03/31 06:54:43;;;;;;;29.50;6.00;;;18.10;59.60;;;;;;5010704;28;20212;-90
2023/03/31 06:57:10;;;;;;;31.53;6.57;;;18.10;59.60;;;;;;5010821;28;20304;-89
2023/03/31 06:59:37;;;;;;;35.03;6.40;;;18.10;59.60;;;;;;5010468;28;20207;-90
2023/03/31 07:02:04;;;;;;;31.27;6.03;;;18.10;59.60;;;;;;5011517;28;20275;-90
2023/03/31 07:04:31;;;;;;;30.10;5.83;;;18.10;59.60;;;;;;5013493;28;20215;-91
2023/03/31 07:06:58;;;;;;;47.07;7.80;;;18.10;59.60;;;;;;5012427;28;20208;-90
2023/03/31 07:09:27;;;;;;;37.77;7.27;;;18.10;59.70;;;;;;5013739;28;20232;-90
2023/03/31 07:11:53;;;;;;;28.10;6.17;;;18.10;59.70;;;;;;5011639;28;20208;-90
2023/03/31 07:14:21;;;;;;;36.57;7.20;;;18.10;59.60;;;;;;5011187;28;20213;-89
2023/03/31 07:16:49;;;;;;;30.97;6.20;;;18.00;59.50;;;;;;5009419;28;20297;-89
2023/03/31 07:19:16;;;;;;;38.87;6.97;;;18.00;59.60;;;;;;5010220;28;20247;-89
2023/03/31 07:21:43;;;;;;;30.83;5.80;;;18.00;59.60;;;;;;5010614;28;20217;-90
2023/03/31 07:24:09;;;;;;;32.27;6.30;;;18.00;59.70;;;;;;5010491;28;20224;-90
2023/03/31 07:26:38;;;;;;;29.70;6.40;;;18.10;59.70;;;;;;5011172;28;20212;-89
2023/03/31 07:29:05;;;;;;;37.83;6.87;;;18.00;59.70;;;;;;5010741;28;20215;-90
2023/03/31 07:31:31;;;;;;;29.93;6.07;;;18.10;59.70;;;;;;5010819;28;20209;-90
2023/03/31 07:33:59;;;;;;;33.00;6.23;;;18.00;59.70;;;;;;5010689;28;20943;-95
2023/03/31 07:36:26;;;;;;;35.10;6.93;;;18.00;59.70;;;;;;5010373;28;20211;-90
2023/03/31 07:38:53;;;;;;;28.57;6.20;;;18.00;59.70;;;;;;5010641;28;20235;-90
2023/03/31 07:41:21;;;;;;;33.77;6.90;;;18.00;59.70;;;;;;5010953;28;20219;-92
2023/03/31 07:43:50;;;;;;;39.43;7.20;;;18.00;59.70;;;;;;5010142;28;20209;-90
2023/03/31 07:46:19;;;;;;;34.57;6.70;;;18.00;59.70;;;;;;5010575;28;20216;-88
2023/03/31 07:48:48;;;;;;;40.57;6.97;;;18.00;59.70;;;;;;5012463;28;20317;-96
2023/03/31 07:51:16;;;;;;;34.77;6.97;;;18.00;59.80;;;;;;5010650;28;20205;-91
2023/03/31 07:53:44;;;;;;;36.07;7.13;;;18.00;59.70;;;;;;5010502;28;20303;-91
2023/03/31 07:56:11;;;;;;;44.47;7.73;;;18.10;59.90;;;;;;5008669;28;20208;-90
2023/03/31 07:58:38;;;;;;;50.40;9.00;;;18.00;59.80;;;;;;5009348;28;20231;-88
2023/03/31 08:01:08;;;;;;;90.80;12.63;;;18.00;59.80;;;;;;5006685;28;20287;-95
2023/03/31 08:03:35;;;;;;;45.27;9.37;;;18.00;59.80;;;;;;4991807;28;20212;-90
2023/03/31 08:06:02;;;;;;;57.30;8.93;;;18.00;59.80;;;;;;4996521;28;20307;-92
2023/03/31 08:08:29;;;;;;;41.87;8.40;;;18.00;59.90;;;;;;5013460;28;20217;-94
2023/03/31 08:10:56;;;;;;;37.90;7.87;;;18.00;59.90;;;;;;5006985;28;20224;-92
2023/03/31 08:13:23;;;;;;;39.03;7.70;;;18.00;60.60;;;;;;5010640;28;20209;-93
2023/03/31 08:15:50;;;;;;;40.23;7.77;;;18.00;59.90;;;;;;5009555;28;20210;-93
2023/03/31 08:18:18;;;;;;;42.77;8.30;;;18.00;59.90;;;;;;5010136;28;20331;-92
2023/03/31 08:20:48;;;;;;;24.10;7.23;;;18.00;59.90;;;;;;5004648;28;20206;-93
2023/03/31 08:23:15;;;;;;;31.20;6.93;;;18.10;60.00;;;;;;5004011;28;20239;-91
2023/03/31 08:25:50;;;;;;;37.57;7.43;;;18.10;60.00;;;;;;5006824;28;20676;-96
2023/03/31 08:28:18;;;;;;;44.00;7.30;;;18.10;59.90;;;;;;5014148;28;20226;-96
2023/03/31 08:30:46;;;;;;;38.20;6.87;;;18.00;59.90;;;;;;5006453;28;20200;-91
2023/03/31 08:33:13;;;;;;;37.17;6.73;;;18.00;59.90;;;;;;5010595;28;20252;-93
2023/03/31 08:35:41;;;;;;;53.53;8.13;;;18.10;59.90;;;;;;5008802;28;20560;-93
2023/03/31 08:38:08;;;;;;;69.97;9.97;;;18.10;59.90;;;;;;5006083;28;20262;-93
2023/03/31 08:40:35;;;;;;;33.17;6.43;;;18.00;59.90;;;;;;5004957;28;20255;-93
2023/03/31 08:43:08;;;;;;;38.17;7.57;;;18.00;59.80;;;;;;5009335;28;20303;-92
2023/03/31 08:45:38;;;;;;;56.67;8.67;;;18.10;59.90;;;;;;5009306;28;20211;-93
2023/03/31 08:48:09;;;;;;;40.43;7.37;;;18.10;59.90;;;;;;4990076;28;20203;-93
2023/03/31 08:50:44;;;;;;;33.90;6.30;;;18.10;59.90;;;;;;4989940;28;20225;-93
2023/03/31 08:53:20;;;;;;;24.97;5.60;;;18.10;60.00;;;;;;5010260;28;20630;-94
2023/03/31 08:55:50;;;;;;;37.23;6.53;;;18.00;59.90;;;;;;5007865;28;20208;-94
2023/03/31 08:58:29;;;;;;;21.67;5.10;;;18.10;59.90;;;;;;5010467;28;20343;-94
2023/03/31 09:01:04;;;;;;;34.87;6.37;;;18.00;59.90;;;;;;5009966;28;20729;-93
2023/03/31 09:03:39;;;;;;;35.43;6.73;;;18.10;59.90;;;;;;5009548;28;20216;-90
2023/03/31 09:06:13;;;;;;;48.57;7.83;;;18.10;59.90;;;;;;5005066;28;20211;-91
2023/03/31 09:08:42;;;;;;;33.23;6.47;;;18.00;59.90;;;;;;4998298;28;20557;-89
2023/03/31 09:11:15;;;;;;;30.63;6.20;;;18.00;59.90;;;;;;5002202;28;20320;-90
2023/03/31 09:14:24;;;;;;;22.33;4.87;;;18.10;60.00;;;;;;5003905;28;20204;-92
2023/03/31 09:16:59;;;;;;;35.47;6.37;;;18.10;60.10;;;;;;5014558;28;20220;-91
2023/03/31 09:19:35;;;;;;;70.80;9.53;;;18.10;60.00;;;;;;4999591;28;20227;-91
2023/03/31 09:22:05;;;;;;;33.73;6.87;;;18.10;60.00;;;;;;5007460;28;20227;-89
2023/03/31 09:24:41;;;;;;;25.87;5.27;;;18.00;59.90;;;;;;5007000;28;20220;-91
2023/03/31 09:27:12;;;;;;;61.23;8.30;;;18.10;60.00;;;;;;5008498;28;20211;-93
2023/03/31 09:29:45;;;;;;;37.03;6.27;;;18.10;60.00;;;;;;5001177;28;20209;-92
2023/03/31 09:32:16;;;;;;;30.77;5.90;;;18.10;60.00;;;;;;5004732;28;20216;-94
2023/03/31 09:37:55;;;;;;;12.60;4.20;;;18.10;60.10;;;;;;5025615;28;20196;-96
2023/03/31 09:40:27;;;;;;;11.17;4.17;;;18.10;60.10;;;;;;5035347;28;20185;-96
2023/03/31 09:42:59;;;;;;;33.77;6.03;;;18.00;59.90;;;;;;5014766;28;20213;-95
2023/03/31 09:45:27;;;;;;;30.00;6.47;;;18.00;60.00;;;;;;5010493;28;20202;-92
2023/03/31 09:47:56;;;;;;;30.60;5.77;;;18.00;59.90;;;;;;5007359;28;20676;-92
2023/03/31 09:50:25;;;;;;;33.10;5.73;;;18.10;60.10;;;;;;5006510;28;20209;-93
2023/03/31 09:52:56;;;;;;;31.90;6.17;;;18.00;60.00;;;;;;5021900;28;20670;-90
2023/03/31 09:55:28;;;;;;;52.07;7.57;;;18.10;60.10;;;;;;5021902;28;20210;-90
2023/03/31 09:57:55;;;;;;;28.90;5.73;;;18.10;60.10;;;;;;5006665;28;20802;-90
2023/03/31 10:00:44;;;;;;;32.67;5.50;;;18.00;60.00;;;;;;5008302;28;20208;-91
2023/03/31 10:03:13;;;;;;;33.50;5.90;;;18.10;60.10;;;;;;5007398;28;20203;-90
2023/03/31 10:05:50;;;;;;;30.37;5.60;;;18.00;60.00;;;;;;5007900;28;20225;-90
2023/03/31 10:08:26;;;;;;;42.30;6.43;;;18.00;60.00;;;;;;5010716;28;20281;-90
2023/03/31 10:10:55;;;;;;;28.10;5.27;;;18.00;60.00;;;;;;5011885;28;20203;-91
2023/03/31 10:13:25;;;;;;;32.67;5.90;;;18.00;60.10;;;;;;5012127;28;20213;-90
2023/03/31 10:15:54;;;;;;;27.20;5.37;;;18.00;60.00;;;;;;5012096;28;20657;-91
2023/03/31 10:18:31;;;;;;;25.50;5.80;;;18.00;60.10;;;;;;5011464;28;20591;-91
2023/03/31 10:20:58;;;;;;;29.47;5.90;;;18.00;60.00;;;;;;5012131;28;20657;-93
2023/03/31 10:23:28;;;;;;;35.03;5.80;;;18.00;60.00;;;;;;5012321;28;21110;-91
2023/03/31 10:25:55;;;;;;;36.63;5.60;;;18.10;60.20;;;;;;5006561;28;20692;-90
2023/03/31 10:28:23;;;;;;;32.00;5.67;;;18.00;60.00;;;;;;5012404;28;20219;-93
2023/03/31 10:30:52;;;;;;;60.43;8.43;;;18.00;60.00;;;;;;5011279;28;20672;-91
2023/03/31 10:33:23;;;;;;;29.53;6.13;;;18.00;60.00;;;;;;5010980;28;20213;-92
2023/03/31 10:35:56;;;;;;;22.40;5.27;;;18.00;60.10;;;;;;5014799;28;20201;-91
2023/03/31 10:38:29;;;;;;;28.97;5.47;;;18.00;60.00;;;;;;5018807;28;20592;-92
2023/03/31 10:40:57;;;;;;;30.60;5.83;;;18.00;60.00;;;;;;5015820;28;20304;-92
2023/03/31 10:43:27;;;;;;;30.07;5.63;;;18.00;60.00;;;;;;5009374;28;20287;-90
2023/03/31 10:45:56;;;;;;;34.03;5.90;;;18.00;60.00;;;;;;4995903;28;20202;-91
2023/03/31 10:48:26;;;;;;;26.60;5.30;;;18.00;60.10;;;;;;5012728;28;20211;-91
2023/03/31 10:50:53;;;;;;;27.00;5.37;;;18.00;60.10;;;;;;5012697;28;20227;-94
2023/03/31 10:53:20;;;;;;;35.37;5.93;;;18.00;60.10;;;;;;5011391;28;20204;-92
2023/03/31 10:56:09;;;;;;;24.77;5.50;;;18.00;60.10;;;;;;5012111;28;20232;-93
2023/03/31 10:58:53;;;;;;;29.77;5.20;;;18.00;60.10;;;;;;5012430;28;20593;-91
2023/03/31 11:01:33;;;;;;;32.77;6.73;;;18.10;60.30;;;;;;5005522;28;20215;-92
2023/03/31 11:04:25;;;;;;;32.07;6.00;;;18.00;60.20;;;;;;5011961;28;20208;-92
2023/03/31 11:06:58;;;;;;;46.63;6.97;;;18.00;60.10;;;;;;4991208;28;20204;-91
2023/03/31 11:09:40;;;;;;;25.17;5.20;;;17.90;60.00;;;;;;4993843;28;20212;-92
2023/03/31 11:12:17;;;;;;;22.97;5.07;;;18.00;60.20;;;;;;4993082;28;20240;-90
2023/03/31 11:15:02;;;;;;;37.93;6.20;;;18.00;61.00;;;;;;4991950;28;20299;-93
2023/03/31 11:17:41;;;;;;;24.47;5.13;;;18.00;60.20;;;;;;4991621;28;20203;-90
2023/03/31 11:20:18;;;;;;;32.30;5.90;;;18.00;60.20;;;;;;5001345;28;20301;-90
2023/03/31 11:22:54;;;;;;;31.43;5.40;;;18.00;60.20;;;;;;5005376;28;20219;-91
2023/03/31 11:25:35;;;;;;;29.97;5.43;;;18.00;60.20;;;;;;5008693;28;20219;-90
2023/03/31 11:28:26;;;;;;;30.77;5.63;;;18.00;60.20;;;;;;5011184;28;20609;-91
2023/03/31 11:31:01;;;;;;;43.40;6.37;;;18.00;60.30;;;;;;5008754;28;20212;-89
2023/03/31 11:33:59;;;;;;;28.07;5.50;;;18.00;60.20;;;;;;5011262;28;20203;-91
2023/03/31 11:36:40;;;;;;;38.50;6.17;;;18.00;60.30;;;;;;5010321;28;20648;-90
2023/03/31 11:39:20;;;;;;;25.70;5.07;;;18.00;60.20;;;;;;5011287;28;20244;-91
2023/03/31 11:41:50;;;;;;;27.07;5.43;;;18.00;60.20;;;;;;5006097;28;20228;-90
2023/03/31 11:44:21;;;;;;;37.93;5.87;;;18.00;60.20;;;;;;5011031;28;20211;-91
2023/03/31 11:46:52;;;;;;;25.53;5.07;;;18.00;60.20;;;;;;5011056;28;20207;-93
2023/03/31 11:49:22;;;;;;;35.97;5.63;;;17.90;60.10;;;;;;5011038;28;20204;-91
2023/03/31 11:51:55;;;;;;;31.40;5.33;;;17.90;60.10;;;;;;5010897;28;20297;-90
2023/03/31 11:54:28;;;;;;;24.13;4.93;;;18.00;60.30;;;;;;5009474;28;20569;-91
2023/03/31 11:56:56;;;;;;;55.53;7.50;;;17.90;60.10;;;;;;5007787;28;20218;-91
2023/03/31 11:59:28;;;;;;;37.90;5.73;;;17.90;60.10;;;;;;5007348;28;20238;-91
2023/03/31 12:02:04;;;;;;;33.47;5.60;;;18.00;60.30;;;;;;5010408;28;20725;-90
2023/03/31 12:04:37;;;;;;;25.23;4.80;;;17.90;60.20;;;;;;5010472;28;20290;-91
2023/03/31 12:07:17;;;;;;;31.77;5.50;;;17.90;60.20;;;;;;5010221;28;20202;-91
2023/03/31 12:09:54;;;;;;;30.03;5.67;;;17.90;60.20;;;;;;5008799;28;20215;-90
2023/03/31 12:12:24;;;;;;;40.60;6.07;;;17.90;60.20;;;;;;5008929;28;20302;-91
2023/03/31 12:14:57;;;;;;;30.73;5.33;;;18.00;60.30;;;;;;5007433;28;20269;-90
2023/03/31 12:17:28;;;;;;;32.33;5.60;;;17.90;60.20;;;;;;5010161;28;20198;-90
2023/03/31 12:19:59;;;;;;;26.10;5.77;;;17.90;60.20;;;;;;5010318;28;20235;-91
2023/03/31 12:22:29;;;;;;;39.37;6.27;;;18.00;60.40;;;;;;5012576;28;20285;-94
2023/03/31 12:24:56;;;;;;;28.57;5.33;;;17.80;60.10;;;;;;5010440;28;20240;-92
2023/03/31 12:27:27;;;;;;;27.20;5.50;;;17.90;60.10;;;;;;5007599;28;20216;-91
2023/03/31 12:29:59;;;;;;;23.90;5.07;;;17.90;60.20;;;;;;5001700;28;20216;-92
2023/03/31 12:32:30;;;;;;;33.37;6.00;;;18.00;60.40;;;;;;5004234;28;20652;-92
2023/03/31 12:35:02;;;;;;;37.30;6.30;;;18.00;60.40;;;;;;5009785;28;20295;-93
2023/03/31 12:37:46;;;;;;;28.80;5.30;;;17.90;60.20;;;;;;4992488;28;20249;-93
2023/03/31 12:40:23;;;;;;;24.50;5.37;;;17.90;60.30;;;;;;4990897;28;20319;-93
2023/03/31 12:43:06;;;;;;;32.83;5.97;;;17.90;60.20;;;;;;4990883;28;20231;-93
2023/03/31 12:45:39;;;;;;;23.80;5.13;;;17.90;60.20;;;;;;4991063;28;20235;-93
2023/03/31 12:48:32;;;;;;;25.63;5.70;;;17.90;60.20;;;;;;4991025;28;20223;-92
2023/03/31 12:51:15;;;;;;;32.30;5.53;;;17.90;60.30;;;;;;4995627;28;20206;-93
2023/03/31 12:53:57;;;;;;;27.53;5.37;;;17.90;60.30;;;;;;5010176;28;20244;-93
2023/03/31 12:56:24;;;;;;;36.93;6.53;;;17.90;60.30;;;;;;5010281;28;20207;-93
2023/03/31 12:58:51;;;;;;;27.37;5.27;;;17.90;60.30;;;;;;5009009;28;20208;-92
2023/03/31 13:01:21;;;;;;;28.73;5.60;;;17.90;60.30;;;;;;5010000;28;20213;-92